<?xml version="1.0" encoding="UTF-8" standalone="no" ?>
<gpx xmlns="http://www.topografix.com/GPX/1/1" xmlns:xsi="http://www.w3.org/2001/XMLSchema-instance" xsi:schemaLocation="http://www.topografix.com/GPX/1/1 http://www.topografix.com/GPX/1/1/gpx.xsd" version="1.1" creator="VisuGPX - https://www.visugpx.com">
  <metadata>
    <name>Trail autour de ST</name>
    <desc><![CDATA[Petite sortie trail autour de ST ]]></desc>
  </metadata>
  <trk>
    <name><![CDATA[Trail autour ST]]></name>
    <trkseg>
      <trkpt lat="45.20397" lon="5.70008">
        <ele>212.42432033962</ele>
        <time>2018-09-30T14:52:34.137Z</time>
      </trkpt>
      <trkpt lat="45.20401" lon="5.70003">
        <ele>212.42432033962</ele>
        <time>2018-09-30T14:52:36.484Z</time>
      </trkpt>
      <trkpt lat="45.20418" lon="5.69981">
        <ele>212.42432033962</ele>
        <time>2018-09-30T14:52:46.082Z</time>
      </trkpt>
      <trkpt lat="45.2042" lon="5.69984">
        <ele>212.42432033962</ele>
        <time>2018-09-30T14:52:47.401Z</time>
      </trkpt>
      <trkpt lat="45.20434" lon="5.70006">
        <ele>212.42432033962</ele>
        <time>2018-09-30T14:52:55.932Z</time>
      </trkpt>
      <trkpt lat="45.20436" lon="5.70009">
        <ele>212.42432033962</ele>
        <time>2018-09-30T14:52:57.141Z</time>
      </trkpt>
      <trkpt lat="45.20444" lon="5.69999">
        <ele>212.42432033962</ele>
        <time>2018-09-30T14:53:01.729Z</time>
      </trkpt>
      <trkpt lat="45.20445" lon="5.69998">
        <ele>212.42432033962</ele>
        <time>2018-09-30T14:53:02.332Z</time>
      </trkpt>
      <trkpt lat="45.20481" lon="5.6995">
        <ele>212.36100474108</ele>
        <time>2018-09-30T14:53:22.456Z</time>
      </trkpt>
      <trkpt lat="45.20488" lon="5.69941">
        <ele>212.33975273419</ele>
        <time>2018-09-30T14:53:26.230Z</time>
      </trkpt>
      <trkpt lat="45.20495" lon="5.69928">
        <ele>212.31277913284</ele>
        <time>2018-09-30T14:53:30.945Z</time>
      </trkpt>
      <trkpt lat="45.20499" lon="5.6992">
        <ele>212.29701350922</ele>
        <time>2018-09-30T14:53:33.711Z</time>
      </trkpt>
      <trkpt lat="45.20525" lon="5.69961">
        <ele>212.20711677326</ele>
        <time>2018-09-30T14:53:49.484Z</time>
      </trkpt>
      <trkpt lat="45.20471" lon="5.70032">
        <ele>212.03645026218</ele>
        <time>2018-09-30T14:54:19.520Z</time>
      </trkpt>
      <trkpt lat="45.20468" lon="5.70041">
        <ele>212.02047167854</ele>
        <time>2018-09-30T14:54:22.398Z</time>
      </trkpt>
      <trkpt lat="45.20472" lon="5.70052">
        <ele>211.99149423888</ele>
        <time>2018-09-30T14:54:26.211Z</time>
      </trkpt>
      <trkpt lat="45.20482" lon="5.7007">
        <ele>211.91864389056</ele>
        <time>2018-09-30T14:54:32.719Z</time>
      </trkpt>
      <trkpt lat="45.20487" lon="5.70078">
        <ele>211.88503549137</ele>
        <time>2018-09-30T14:54:35.813Z</time>
      </trkpt>
      <trkpt lat="45.20493" lon="5.70087">
        <ele>211.843617872</ele>
        <time>2018-09-30T14:54:39.590Z</time>
      </trkpt>
      <trkpt lat="45.20495" lon="5.7009">
        <ele>211.83149466295</ele>
        <time>2018-09-30T14:54:40.737Z</time>
      </trkpt>
      <trkpt lat="45.205" lon="5.70097">
        <ele>211.8008788411</ele>
        <time>2018-09-30T14:54:43.422Z</time>
      </trkpt>
      <trkpt lat="45.20506" lon="5.70107">
        <ele>211.75779186752</ele>
        <time>2018-09-30T14:54:47.263Z</time>
      </trkpt>
      <trkpt lat="45.20511" lon="5.70115">
        <ele>211.72529943311</ele>
        <time>2018-09-30T14:54:50.240Z</time>
      </trkpt>
      <trkpt lat="45.20516" lon="5.7012">
        <ele>211.69549545762</ele>
        <time>2018-09-30T14:54:52.943Z</time>
      </trkpt>
      <trkpt lat="45.20542" lon="5.70129">
        <ele>211.57408285191</ele>
        <time>2018-09-30T14:55:03.729Z</time>
      </trkpt>
      <trkpt lat="45.20592" lon="5.70142">
        <ele>211.34221424164</ele>
        <time>2018-09-30T14:55:24.473Z</time>
      </trkpt>
      <trkpt lat="45.20616" lon="5.70152">
        <ele>211.22857674615</ele>
        <time>2018-09-30T14:55:34.508Z</time>
      </trkpt>
      <trkpt lat="45.20627" lon="5.70152">
        <ele>211.17094007302</ele>
        <time>2018-09-30T14:55:39.018Z</time>
      </trkpt>
      <trkpt lat="45.20791" lon="5.70238">
        <ele>209.92689232944</ele>
        <time>2018-09-30T14:56:49.154Z</time>
      </trkpt>
      <trkpt lat="45.20805" lon="5.70247">
        <ele>209.93780617984</ele>
        <time>2018-09-30T14:56:55.547Z</time>
      </trkpt>
      <trkpt lat="45.20801" lon="5.70256">
        <ele>209.95692964097</ele>
        <time>2018-09-30T14:56:58.765Z</time>
      </trkpt>
      <trkpt lat="45.2078" lon="5.70306">
        <ele>210.05458533065</ele>
        <time>2018-09-30T14:57:15.226Z</time>
      </trkpt>
      <trkpt lat="45.20757" lon="5.7036">
        <ele>210.1622342997</ele>
        <time>2018-09-30T14:57:33.579Z</time>
      </trkpt>
      <trkpt lat="45.20756" lon="5.70335">
        <ele>210.20413971185</ele>
        <time>2018-09-30T14:57:40.877Z</time>
      </trkpt>
      <trkpt lat="45.20744" lon="5.70367">
        <ele>210.26600071571</ele>
        <time>2018-09-30T14:57:53.548Z</time>
      </trkpt>
      <trkpt lat="45.20651" lon="5.70604">
        <ele>212.11541446179</ele>
        <time>2018-09-30T14:59:29.589Z</time>
      </trkpt>
      <trkpt lat="45.20646" lon="5.70629">
        <ele>212.31735176591</ele>
        <time>2018-09-30T14:59:39.028Z</time>
      </trkpt>
      <trkpt lat="45.20618" lon="5.707">
        <ele>213.1947105711</ele>
        <time>2018-09-30T15:00:04.062Z</time>
      </trkpt>
      <trkpt lat="45.20617" lon="5.70704">
        <ele>213.23633551894</ele>
        <time>2018-09-30T15:00:05.347Z</time>
      </trkpt>
      <trkpt lat="45.20601" lon="5.7077">
        <ele>214.00372244079</ele>
        <time>2018-09-30T15:00:27.384Z</time>
      </trkpt>
      <trkpt lat="45.20605" lon="5.70772">
        <ele>214.06792700486</ele>
        <time>2018-09-30T15:00:29.178Z</time>
      </trkpt>
      <trkpt lat="45.20613" lon="5.70765">
        <ele>214.21958226592</ele>
        <time>2018-09-30T15:00:33.441Z</time>
      </trkpt>
      <trkpt lat="45.20616" lon="5.70762">
        <ele>214.27728678493</ele>
        <time>2018-09-30T15:00:35.216Z</time>
      </trkpt>
      <trkpt lat="45.20636" lon="5.70745">
        <ele>214.63839088238</ele>
        <time>2018-09-30T15:00:45.469Z</time>
      </trkpt>
      <trkpt lat="45.20708" lon="5.70713">
        <ele>216.05817288243</ele>
        <time>2018-09-30T15:01:17.477Z</time>
      </trkpt>
      <trkpt lat="45.20717" lon="5.70707">
        <ele>216.28477451292</ele>
        <time>2018-09-30T15:01:22.035Z</time>
      </trkpt>
      <trkpt lat="45.20719" lon="5.70713">
        <ele>216.3745378144</ele>
        <time>2018-09-30T15:01:23.762Z</time>
      </trkpt>
      <trkpt lat="45.20721" lon="5.70721">
        <ele>216.50913093189</ele>
        <time>2018-09-30T15:01:26.369Z</time>
      </trkpt>
      <trkpt lat="45.20725" lon="5.70735">
        <ele>216.74018494752</ele>
        <time>2018-09-30T15:01:30.967Z</time>
      </trkpt>
      <trkpt lat="45.20716" lon="5.70742">
        <ele>216.96599479417</ele>
        <time>2018-09-30T15:01:35.506Z</time>
      </trkpt>
      <trkpt lat="45.20674" lon="5.70788">
        <ele>218.10911317272</ele>
        <time>2018-09-30T15:01:59.465Z</time>
      </trkpt>
      <trkpt lat="45.20646" lon="5.70829">
        <ele>218.98053659305</ele>
        <time>2018-09-30T15:02:18.248Z</time>
      </trkpt>
      <trkpt lat="45.20623" lon="5.70863">
        <ele>221.04969170886</ele>
        <time>2018-09-30T15:02:34.171Z</time>
      </trkpt>
      <trkpt lat="45.20629" lon="5.70878">
        <ele>221.79881090626</ele>
        <time>2018-09-30T15:02:39.583Z</time>
      </trkpt>
      <trkpt lat="45.20636" lon="5.70889">
        <ele>222.44610287355</ele>
        <time>2018-09-30T15:02:44.477Z</time>
      </trkpt>
      <trkpt lat="45.20628" lon="5.70896">
        <ele>223.03699407879</ele>
        <time>2018-09-30T15:02:49.442Z</time>
      </trkpt>
      <trkpt lat="45.20621" lon="5.70904">
        <ele>223.59103812764</ele>
        <time>2018-09-30T15:02:53.300Z</time>
      </trkpt>
      <trkpt lat="45.2063" lon="5.70923">
        <ele>224.61690423467</ele>
        <time>2018-09-30T15:03:00.979Z</time>
      </trkpt>
      <trkpt lat="45.20635" lon="5.70936">
        <ele>225.26727450161</ele>
        <time>2018-09-30T15:03:07.908Z</time>
      </trkpt>
      <trkpt lat="45.20653" lon="5.70971">
        <ele>227.22050998083</ele>
        <time>2018-09-30T15:03:24.656Z</time>
      </trkpt>
      <trkpt lat="45.20676" lon="5.71048">
        <ele>231.38569345074</ele>
        <time>2018-09-30T15:04:01.751Z</time>
      </trkpt>
      <trkpt lat="45.20681" lon="5.71056">
        <ele>232.331878989</ele>
        <time>2018-09-30T15:04:06.229Z</time>
      </trkpt>
      <trkpt lat="45.20686" lon="5.71054">
        <ele>232.98395326595</ele>
        <time>2018-09-30T15:04:10.147Z</time>
      </trkpt>
      <trkpt lat="45.20711" lon="5.71018">
        <ele>237.21497145758</ele>
        <time>2018-09-30T15:04:34.988Z</time>
      </trkpt>
      <trkpt lat="45.20717" lon="5.71016">
        <ele>237.86704548176</ele>
        <time>2018-09-30T15:04:39.990Z</time>
      </trkpt>
      <trkpt lat="45.20721" lon="5.71024">
        <ele>238.66559430938</ele>
        <time>2018-09-30T15:04:45.619Z</time>
      </trkpt>
      <trkpt lat="45.20721" lon="5.71045">
        <ele>240.39387788127</ele>
        <time>2018-09-30T15:04:54.183Z</time>
      </trkpt>
      <trkpt lat="45.20713" lon="5.71066">
        <ele>242.42241776266</ele>
        <time>2018-09-30T15:05:06.352Z</time>
      </trkpt>
      <trkpt lat="45.20714" lon="5.71077">
        <ele>243.35200152676</ele>
        <time>2018-09-30T15:05:12.262Z</time>
      </trkpt>
      <trkpt lat="45.20728" lon="5.71081">
        <ele>245.02450203696</ele>
        <time>2018-09-30T15:05:20.955Z</time>
      </trkpt>
      <trkpt lat="45.20764" lon="5.71063">
        <ele>249.51401904016</ele>
        <time>2018-09-30T15:05:48.058Z</time>
      </trkpt>
      <trkpt lat="45.20767" lon="5.71067">
        <ele>249.9689510953</ele>
        <time>2018-09-30T15:05:50.579Z</time>
      </trkpt>
      <trkpt lat="45.20766" lon="5.71095">
        <ele>252.68737262867</ele>
        <time>2018-09-30T15:06:07.248Z</time>
      </trkpt>
      <trkpt lat="45.20772" lon="5.71118">
        <ele>255.83297159034</ele>
        <time>2018-09-30T15:06:20.939Z</time>
      </trkpt>
      <trkpt lat="45.20791" lon="5.71132">
        <ele>259.79001564871</ele>
        <time>2018-09-30T15:06:41.137Z</time>
      </trkpt>
      <trkpt lat="45.20804" lon="5.71133">
        <ele>262.11775569713</ele>
        <time>2018-09-30T15:06:51.065Z</time>
      </trkpt>
      <trkpt lat="45.20832" lon="5.71124">
        <ele>267.32761105754</ele>
        <time>2018-09-30T15:07:16.952Z</time>
      </trkpt>
      <trkpt lat="45.20855" lon="5.71106">
        <ele>272.23329503926</ele>
        <time>2018-09-30T15:07:40.951Z</time>
      </trkpt>
      <trkpt lat="45.20883" lon="5.71096">
        <ele>277.49421448535</ele>
        <time>2018-09-30T15:08:07.900Z</time>
      </trkpt>
      <trkpt lat="45.20907" lon="5.71088">
        <ele>281.9282208417</ele>
        <time>2018-09-30T15:08:34.467Z</time>
      </trkpt>
      <trkpt lat="45.20916" lon="5.71078">
        <ele>284.05940773889</ele>
        <time>2018-09-30T15:08:46.642Z</time>
      </trkpt>
      <trkpt lat="45.20936" lon="5.71044">
        <ele>291.53509972679</ele>
        <time>2018-09-30T15:09:27.204Z</time>
      </trkpt>
      <trkpt lat="45.20946" lon="5.71041">
        <ele>294.02521977562</ele>
        <time>2018-09-30T15:09:38.022Z</time>
      </trkpt>
      <trkpt lat="45.20951" lon="5.71044">
        <ele>295.41456184488</ele>
        <time>2018-09-30T15:09:49.916Z</time>
      </trkpt>
      <trkpt lat="45.20955" lon="5.71048">
        <ele>296.66232699221</ele>
        <time>2018-09-30T15:09:56.206Z</time>
      </trkpt>
      <trkpt lat="45.20958" lon="5.71049">
        <ele>297.30707761271</ele>
        <time>2018-09-30T15:09:58.816Z</time>
      </trkpt>
      <trkpt lat="45.20963" lon="5.71041">
        <ele>299.17606974539</ele>
        <time>2018-09-30T15:10:06.533Z</time>
      </trkpt>
      <trkpt lat="45.20966" lon="5.7104">
        <ele>300.00729814103</ele>
        <time>2018-09-30T15:10:11.405Z</time>
      </trkpt>
      <trkpt lat="45.20965" lon="5.71053">
        <ele>302.17067677839</ele>
        <time>2018-09-30T15:10:18.702Z</time>
      </trkpt>
      <trkpt lat="45.20971" lon="5.71059">
        <ele>304.03955963984</ele>
        <time>2018-09-30T15:10:33.991Z</time>
      </trkpt>
      <trkpt lat="45.20999" lon="5.7107">
        <ele>311.19628117366</ele>
        <time>2018-09-30T15:11:07.570Z</time>
      </trkpt>
      <trkpt lat="45.21018" lon="5.71094">
        <ele>317.45272659318</ele>
        <time>2018-09-30T15:11:44.334Z</time>
      </trkpt>
      <trkpt lat="45.21037" lon="5.71104">
        <ele>322.47910672097</ele>
        <time>2018-09-30T15:12:18.729Z</time>
      </trkpt>
      <trkpt lat="45.21071" lon="5.71135">
        <ele>332.65143880001</ele>
        <time>2018-09-30T15:13:21.414Z</time>
      </trkpt>
      <trkpt lat="45.21076" lon="5.71124">
        <ele>335.2288870099</ele>
        <time>2018-09-30T15:13:33.686Z</time>
      </trkpt>
      <trkpt lat="45.21091" lon="5.71113">
        <ele>339.52039099524</ele>
        <time>2018-09-30T15:13:59.405Z</time>
      </trkpt>
      <trkpt lat="45.21105" lon="5.71086">
        <ele>345.58237578015</ele>
        <time>2018-09-30T15:14:31.937Z</time>
      </trkpt>
      <trkpt lat="45.21141" lon="5.71061">
        <ele>356.03657752565</ele>
        <time>2018-09-30T15:15:27.635Z</time>
      </trkpt>
      <trkpt lat="45.21157" lon="5.71051">
        <ele>360.62499894549</ele>
        <time>2018-09-30T15:15:54.703Z</time>
      </trkpt>
      <trkpt lat="45.2118" lon="5.71041">
        <ele>366.81975682321</ele>
        <time>2018-09-30T15:16:26.182Z</time>
      </trkpt>
      <trkpt lat="45.21203" lon="5.71033">
        <ele>373.03273520556</ele>
        <time>2018-09-30T15:16:58.458Z</time>
      </trkpt>
      <trkpt lat="45.2123" lon="5.71046">
        <ele>379.28522901787</ele>
        <time>2018-09-30T15:17:39.486Z</time>
      </trkpt>
      <trkpt lat="45.2124" lon="5.71045">
        <ele>381.29576558023</ele>
        <time>2018-09-30T15:17:52.555Z</time>
      </trkpt>
      <trkpt lat="45.21285" lon="5.70985">
        <ele>393.29586304156</ele>
        <time>2018-09-30T15:19:12.169Z</time>
      </trkpt>
      <trkpt lat="45.21321" lon="5.70959">
        <ele>401.15432734958</ele>
        <time>2018-09-30T15:19:52.827Z</time>
      </trkpt>
      <trkpt lat="45.21332" lon="5.70949">
        <ele>403.71705131134</ele>
        <time>2018-09-30T15:20:09.193Z</time>
      </trkpt>
      <trkpt lat="45.21345" lon="5.70969">
        <ele>407.39338854098</ele>
        <time>2018-09-30T15:20:20.923Z</time>
      </trkpt>
      <trkpt lat="45.21358" lon="5.70997">
        <ele>411.78087478484</ele>
        <time>2018-09-30T15:20:40.578Z</time>
      </trkpt>
      <trkpt lat="45.21377" lon="5.71056">
        <ele>418.80531191272</ele>
        <time>2018-09-30T15:21:12.963Z</time>
      </trkpt>
      <trkpt lat="45.21379" lon="5.71059">
        <ele>419.20685307112</ele>
        <time>2018-09-30T15:21:14.747Z</time>
      </trkpt>
      <trkpt lat="45.21382" lon="5.7106">
        <ele>419.72308849819</ele>
        <time>2018-09-30T15:21:16.914Z</time>
      </trkpt>
      <trkpt lat="45.21388" lon="5.71059">
        <ele>420.5583286723</ele>
        <time>2018-09-30T15:21:20.941Z</time>
      </trkpt>
      <trkpt lat="45.21391" lon="5.71057">
        <ele>421.1019559907</ele>
        <time>2018-09-30T15:21:24.102Z</time>
      </trkpt>
      <trkpt lat="45.21392" lon="5.71054">
        <ele>421.42374668194</ele>
        <time>2018-09-30T15:21:28.690Z</time>
      </trkpt>
      <trkpt lat="45.21409" lon="5.70979">
        <ele>429.9879534307</ele>
        <time>2018-09-30T15:22:13.029Z</time>
      </trkpt>
      <trkpt lat="45.2142" lon="5.70957">
        <ele>432.99849361673</ele>
        <time>2018-09-30T15:22:30.921Z</time>
      </trkpt>
      <trkpt lat="45.21433" lon="5.70956">
        <ele>435.06552012984</ele>
        <time>2018-09-30T15:22:39.775Z</time>
      </trkpt>
      <trkpt lat="45.21441" lon="5.70963">
        <ele>436.50618382361</ele>
        <time>2018-09-30T15:22:49.410Z</time>
      </trkpt>
      <trkpt lat="45.21467" lon="5.71008">
        <ele>443.98291272072</ele>
        <time>2018-09-30T15:23:25.917Z</time>
      </trkpt>
      <trkpt lat="45.2148" lon="5.71032">
        <ele>448.19708753943</ele>
        <time>2018-09-30T15:23:44.779Z</time>
      </trkpt>
      <trkpt lat="45.21489" lon="5.71019">
        <ele>450.81006260769</ele>
        <time>2018-09-30T15:24:04.843Z</time>
      </trkpt>
      <trkpt lat="45.21513" lon="5.70992">
        <ele>456.72196758338</ele>
        <time>2018-09-30T15:24:41.212Z</time>
      </trkpt>
      <trkpt lat="45.21557" lon="5.70966">
        <ele>466.10913141895</ele>
        <time>2018-09-30T15:25:45.914Z</time>
      </trkpt>
      <trkpt lat="45.21575" lon="5.70936">
        <ele>471.65327272769</ele>
        <time>2018-09-30T15:26:29.303Z</time>
      </trkpt>
      <trkpt lat="45.21599" lon="5.70907">
        <ele>476.98724730665</ele>
        <time>2018-09-30T15:27:19.354Z</time>
      </trkpt>
      <trkpt lat="45.21607" lon="5.70892">
        <ele>479.13385012177</ele>
        <time>2018-09-30T15:27:40.522Z</time>
      </trkpt>
      <trkpt lat="45.21613" lon="5.7088">
        <ele>480.74148965943</ele>
        <time>2018-09-30T15:27:54.636Z</time>
      </trkpt>
      <trkpt lat="45.21621" lon="5.70851">
        <ele>484.26943625044</ele>
        <time>2018-09-30T15:28:22.062Z</time>
      </trkpt>
      <trkpt lat="45.21627" lon="5.70818">
        <ele>488.01839561167</ele>
        <time>2018-09-30T15:28:50.934Z</time>
      </trkpt>
      <trkpt lat="45.21624" lon="5.70781">
        <ele>492.16017550002</ele>
        <time>2018-09-30T15:29:19.913Z</time>
      </trkpt>
      <trkpt lat="45.21637" lon="5.70769">
        <ele>494.63806675607</ele>
        <time>2018-09-30T15:29:43.639Z</time>
      </trkpt>
      <trkpt lat="45.2165" lon="5.70763">
        <ele>496.83907680967</ele>
        <time>2018-09-30T15:30:03.477Z</time>
      </trkpt>
      <trkpt lat="45.21663" lon="5.70752">
        <ele>499.09841154034</ele>
        <time>2018-09-30T15:30:25.166Z</time>
      </trkpt>
      <trkpt lat="45.21687" lon="5.70731">
        <ele>501.95632093667</ele>
        <time>2018-09-30T15:31:01.149Z</time>
      </trkpt>
      <trkpt lat="45.21753" lon="5.70684">
        <ele>498.2184304447</ele>
        <time>2018-09-30T15:32:13.802Z</time>
      </trkpt>
      <trkpt lat="45.21757" lon="5.70673">
        <ele>497.80002611577</ele>
        <time>2018-09-30T15:32:20.361Z</time>
      </trkpt>
      <trkpt lat="45.21747" lon="5.70637">
        <ele>496.42471204443</ele>
        <time>2018-09-30T15:32:39.464Z</time>
      </trkpt>
      <trkpt lat="45.21757" lon="5.70589">
        <ele>494.64317765344</ele>
        <time>2018-09-30T15:33:02.335Z</time>
      </trkpt>
      <trkpt lat="45.2177" lon="5.70558">
        <ele>493.38185427161</ele>
        <time>2018-09-30T15:33:18.314Z</time>
      </trkpt>
      <trkpt lat="45.21777" lon="5.70528">
        <ele>486.80986989246</ele>
        <time>2018-09-30T15:33:32.294Z</time>
      </trkpt>
      <trkpt lat="45.21774" lon="5.70479">
        <ele>475.92395176359</ele>
        <time>2018-09-30T15:33:55.053Z</time>
      </trkpt>
      <trkpt lat="45.21756" lon="5.70363">
        <ele>449.73308182436</ele>
        <time>2018-09-30T15:34:54.966Z</time>
      </trkpt>
      <trkpt lat="45.21745" lon="5.70346">
        <ele>444.51175350701</ele>
        <time>2018-09-30T15:35:07.668Z</time>
      </trkpt>
      <trkpt lat="45.21694" lon="5.70325">
        <ele>425.96149627718</ele>
        <time>2018-09-30T15:35:51.696Z</time>
      </trkpt>
      <trkpt lat="45.21651" lon="5.70287">
        <ele>406.79370438576</ele>
        <time>2018-09-30T15:36:32.491Z</time>
      </trkpt>
      <trkpt lat="45.2164" lon="5.70289">
        <ele>402.54495534033</ele>
        <time>2018-09-30T15:36:40.965Z</time>
      </trkpt>
      <trkpt lat="45.21641" lon="5.7027">
        <ele>397.22057690586</ele>
        <time>2018-09-30T15:36:54.017Z</time>
      </trkpt>
      <trkpt lat="45.21635" lon="5.70221">
        <ele>384.1593472023</ele>
        <time>2018-09-30T15:37:20.498Z</time>
      </trkpt>
      <trkpt lat="45.2164" lon="5.70209">
        <ele>380.47799021988</ele>
        <time>2018-09-30T15:37:26.897Z</time>
      </trkpt>
      <trkpt lat="45.21644" lon="5.70188">
        <ele>374.72813993398</ele>
        <time>2018-09-30T15:37:37.363Z</time>
      </trkpt>
      <trkpt lat="45.21644" lon="5.70188">
        <ele>374.72813993398</ele>
        <time>2018-09-30T15:37:38.109Z</time>
      </trkpt>
      <trkpt lat="45.21633" lon="5.7019">
        <ele>370.70728293001</ele>
        <time>2018-09-30T15:37:42.956Z</time>
      </trkpt>
      <trkpt lat="45.21628" lon="5.70208">
        <ele>367.63809504068</ele>
        <time>2018-09-30T15:37:47.882Z</time>
      </trkpt>
      <trkpt lat="45.2162" lon="5.7021">
        <ele>366.35676653426</ele>
        <time>2018-09-30T15:37:51.101Z</time>
      </trkpt>
      <trkpt lat="45.21613" lon="5.70204">
        <ele>365.13558777614</ele>
        <time>2018-09-30T15:37:54.863Z</time>
      </trkpt>
      <trkpt lat="45.21602" lon="5.70205">
        <ele>363.57913734109</ele>
        <time>2018-09-30T15:37:58.907Z</time>
      </trkpt>
      <trkpt lat="45.21592" lon="5.70212">
        <ele>361.78784028228</ele>
        <time>2018-09-30T15:38:03.324Z</time>
      </trkpt>
      <trkpt lat="45.21583" lon="5.70229">
        <ele>359.62586592964</ele>
        <time>2018-09-30T15:38:09.016Z</time>
      </trkpt>
      <trkpt lat="45.21577" lon="5.70224">
        <ele>358.60435597102</ele>
        <time>2018-09-30T15:38:11.643Z</time>
      </trkpt>
      <trkpt lat="45.21577" lon="5.70214">
        <ele>357.54400699332</ele>
        <time>2018-09-30T15:38:14.370Z</time>
      </trkpt>
      <trkpt lat="45.21567" lon="5.70196">
        <ele>355.09908131057</ele>
        <time>2018-09-30T15:38:20.466Z</time>
      </trkpt>
      <trkpt lat="45.21565" lon="5.70181">
        <ele>353.41962517958</ele>
        <time>2018-09-30T15:38:24.946Z</time>
      </trkpt>
      <trkpt lat="45.21572" lon="5.70167">
        <ele>351.58983066942</ele>
        <time>2018-09-30T15:38:30.069Z</time>
      </trkpt>
      <trkpt lat="45.21558" lon="5.70132">
        <ele>347.27806145442</ele>
        <time>2018-09-30T15:38:40.825Z</time>
      </trkpt>
      <trkpt lat="45.21551" lon="5.70128">
        <ele>346.20646916897</ele>
        <time>2018-09-30T15:38:44.603Z</time>
      </trkpt>
      <trkpt lat="45.21545" lon="5.7013">
        <ele>345.18571723629</ele>
        <time>2018-09-30T15:38:48.012Z</time>
      </trkpt>
      <trkpt lat="45.21535" lon="5.70144">
        <ele>343.13819140682</ele>
        <time>2018-09-30T15:38:54.675Z</time>
      </trkpt>
      <trkpt lat="45.21533" lon="5.70159">
        <ele>341.68252332677</ele>
        <time>2018-09-30T15:39:00.706Z</time>
      </trkpt>
      <trkpt lat="45.21538" lon="5.70187">
        <ele>343.17237421327</ele>
        <time>2018-09-30T15:39:12.810Z</time>
      </trkpt>
      <trkpt lat="45.21534" lon="5.70214">
        <ele>344.57582253643</ele>
        <time>2018-09-30T15:39:24.840Z</time>
      </trkpt>
      <trkpt lat="45.21536" lon="5.70257">
        <ele>346.82983374299</ele>
        <time>2018-09-30T15:39:45.911Z</time>
      </trkpt>
      <trkpt lat="45.21613" lon="5.70376">
        <ele>354.83772918468</ele>
        <time>2018-09-30T15:41:17.495Z</time>
      </trkpt>
      <trkpt lat="45.21622" lon="5.70418">
        <ele>354.90187323033</ele>
        <time>2018-09-30T15:41:36.435Z</time>
      </trkpt>
      <trkpt lat="45.21607" lon="5.70465">
        <ele>354.97778360979</ele>
        <time>2018-09-30T15:41:56.878Z</time>
      </trkpt>
      <trkpt lat="45.21597" lon="5.70472">
        <ele>355.00014573201</ele>
        <time>2018-09-30T15:42:03.446Z</time>
      </trkpt>
      <trkpt lat="45.21577" lon="5.70467">
        <ele>355.04337198017</ele>
        <time>2018-09-30T15:42:13.271Z</time>
      </trkpt>
      <trkpt lat="45.21548" lon="5.70471">
        <ele>355.10477068767</ele>
        <time>2018-09-30T15:42:27.294Z</time>
      </trkpt>
      <trkpt lat="45.21532" lon="5.70464">
        <ele>355.14008482572</ele>
        <time>2018-09-30T15:42:34.919Z</time>
      </trkpt>
      <trkpt lat="45.2153" lon="5.70471">
        <ele>355.15026062043</ele>
        <time>2018-09-30T15:42:37.444Z</time>
      </trkpt>
      <trkpt lat="45.21528" lon="5.70472">
        <ele>355.15361023958</ele>
        <time>2018-09-30T15:42:38.196Z</time>
      </trkpt>
      <trkpt lat="45.21525" lon="5.7047">
        <ele>355.16139203344</ele>
        <time>2018-09-30T15:42:40.374Z</time>
      </trkpt>
      <trkpt lat="45.21525" lon="5.7046">
        <ele>355.17575083314</ele>
        <time>2018-09-30T15:42:42.587Z</time>
      </trkpt>
      <trkpt lat="45.21527" lon="5.70386">
        <ele>347.91839889153</ele>
        <time>2018-09-30T15:42:59.312Z</time>
      </trkpt>
      <trkpt lat="45.21525" lon="5.70378">
        <ele>346.78162560044</ele>
        <time>2018-09-30T15:43:01.215Z</time>
      </trkpt>
      <trkpt lat="45.2152" lon="5.70373">
        <ele>345.6835419148</ele>
        <time>2018-09-30T15:43:03.484Z</time>
      </trkpt>
      <trkpt lat="45.2151" lon="5.70383">
        <ele>343.27165652495</ele>
        <time>2018-09-30T15:43:07.544Z</time>
      </trkpt>
      <trkpt lat="45.21499" lon="5.70414">
        <ele>338.65472509211</ele>
        <time>2018-09-30T15:43:15.304Z</time>
      </trkpt>
      <trkpt lat="45.21488" lon="5.70431">
        <ele>335.56319840472</ele>
        <time>2018-09-30T15:43:20.491Z</time>
      </trkpt>
      <trkpt lat="45.21476" lon="5.70445">
        <ele>332.6005216168</ele>
        <time>2018-09-30T15:43:25.650Z</time>
      </trkpt>
      <trkpt lat="45.21468" lon="5.70451">
        <ele>331.00072766161</ele>
        <time>2018-09-30T15:43:28.334Z</time>
      </trkpt>
      <trkpt lat="45.21471" lon="5.70442">
        <ele>329.71504297834</ele>
        <time>2018-09-30T15:43:30.547Z</time>
      </trkpt>
      <trkpt lat="45.21472" lon="5.70432">
        <ele>328.38405302124</ele>
        <time>2018-09-30T15:43:32.776Z</time>
      </trkpt>
      <trkpt lat="45.21464" lon="5.70429">
        <ele>326.78584370852</ele>
        <time>2018-09-30T15:43:36.431Z</time>
      </trkpt>
      <trkpt lat="45.21442" lon="5.70424">
        <ele>322.56032769835</ele>
        <time>2018-09-30T15:43:44.826Z</time>
      </trkpt>
      <trkpt lat="45.214" lon="5.70406">
        <ele>311.45522716512</ele>
        <time>2018-09-30T15:44:01.504Z</time>
      </trkpt>
      <trkpt lat="45.21364" lon="5.70379">
        <ele>300.49024283881</ele>
        <time>2018-09-30T15:44:19.628Z</time>
      </trkpt>
      <trkpt lat="45.21318" lon="5.70355">
        <ele>287.32000313783</ele>
        <time>2018-09-30T15:44:39.348Z</time>
      </trkpt>
      <trkpt lat="45.21279" lon="5.70301">
        <ele>272.81971991342</ele>
        <time>2018-09-30T15:44:59.730Z</time>
      </trkpt>
      <trkpt lat="45.21278" lon="5.70296">
        <ele>272.21726478466</ele>
        <time>2018-09-30T15:45:02.099Z</time>
      </trkpt>
      <trkpt lat="45.21282" lon="5.7028">
        <ele>270.28932074037</ele>
        <time>2018-09-30T15:45:05.848Z</time>
      </trkpt>
      <trkpt lat="45.21301" lon="5.70219">
        <ele>262.46463263206</ele>
        <time>2018-09-30T15:45:20.989Z</time>
      </trkpt>
      <trkpt lat="45.21314" lon="5.70208">
        <ele>259.97888045318</ele>
        <time>2018-09-30T15:45:25.870Z</time>
      </trkpt>
      <trkpt lat="45.21314" lon="5.70198">
        <ele>258.76930703897</ele>
        <time>2018-09-30T15:45:28.223Z</time>
      </trkpt>
      <trkpt lat="45.21304" lon="5.70168">
        <ele>254.92834225343</ele>
        <time>2018-09-30T15:45:35.764Z</time>
      </trkpt>
      <trkpt lat="45.21306" lon="5.70144">
        <ele>252.12005275836</ele>
        <time>2018-09-30T15:45:41.182Z</time>
      </trkpt>
      <trkpt lat="45.21341" lon="5.70074">
        <ele>242.74119493268</ele>
        <time>2018-09-30T15:46:00.713Z</time>
      </trkpt>
      <trkpt lat="45.21356" lon="5.70056">
        <ele>241.05204615635</ele>
        <time>2018-09-30T15:46:07.516Z</time>
      </trkpt>
      <trkpt lat="45.21373" lon="5.70044">
        <ele>239.35478635364</ele>
        <time>2018-09-30T15:46:14.448Z</time>
      </trkpt>
      <trkpt lat="45.21384" lon="5.70031">
        <ele>238.11343225105</ele>
        <time>2018-09-30T15:46:19.428Z</time>
      </trkpt>
      <trkpt lat="45.21432" lon="5.69965">
        <ele>232.4047631101</ele>
        <time>2018-09-30T15:46:41.788Z</time>
      </trkpt>
      <trkpt lat="45.21448" lon="5.69935">
        <ele>230.14756018842</ele>
        <time>2018-09-30T15:46:50.695Z</time>
      </trkpt>
      <trkpt lat="45.21466" lon="5.69867">
        <ele>226.54671606976</ele>
        <time>2018-09-30T15:47:08.870Z</time>
      </trkpt>
      <trkpt lat="45.21464" lon="5.69851">
        <ele>225.9408451686</ele>
        <time>2018-09-30T15:47:12.701Z</time>
      </trkpt>
      <trkpt lat="45.21403" lon="5.69916">
        <ele>221.98831470555</ele>
        <time>2018-09-30T15:47:40.514Z</time>
      </trkpt>
      <trkpt lat="45.21387" lon="5.69903">
        <ele>221.02498111706</ele>
        <time>2018-09-30T15:47:47.790Z</time>
      </trkpt>
      <trkpt lat="45.21384" lon="5.69901">
        <ele>220.84509279645</ele>
        <time>2018-09-30T15:47:49.029Z</time>
      </trkpt>
      <trkpt lat="45.2138" lon="5.69909">
        <ele>220.48193903671</ele>
        <time>2018-09-30T15:47:51.519Z</time>
      </trkpt>
      <trkpt lat="45.21375" lon="5.6991">
        <ele>220.21985848608</ele>
        <time>2018-09-30T15:47:53.400Z</time>
      </trkpt>
      <trkpt lat="45.21373" lon="5.69908">
        <ele>220.09494962598</ele>
        <time>2018-09-30T15:47:54.369Z</time>
      </trkpt>
      <trkpt lat="45.21371" lon="5.69906">
        <ele>219.93830328301</ele>
        <time>2018-09-30T15:47:55.573Z</time>
      </trkpt>
      <trkpt lat="45.21358" lon="5.69894">
        <ele>219.15446061345</ele>
        <time>2018-09-30T15:48:01.323Z</time>
      </trkpt>
      <trkpt lat="45.21354" lon="5.6989">
        <ele>218.89415369416</ele>
        <time>2018-09-30T15:48:03.061Z</time>
      </trkpt>
      <trkpt lat="45.21339" lon="5.69918">
        <ele>217.96477795366</ele>
        <time>2018-09-30T15:48:12.132Z</time>
      </trkpt>
      <trkpt lat="45.21329" lon="5.69939">
        <ele>217.3925229327</ele>
        <time>2018-09-30T15:48:19.090Z</time>
      </trkpt>
      <trkpt lat="45.21324" lon="5.69939">
        <ele>217.23595644623</ele>
        <time>2018-09-30T15:48:21.055Z</time>
      </trkpt>
      <trkpt lat="45.21295" lon="5.69982">
        <ele>215.90642957402</ele>
        <time>2018-09-30T15:48:37.020Z</time>
      </trkpt>
      <trkpt lat="45.2128" lon="5.69999">
        <ele>215.27276537392</ele>
        <time>2018-09-30T15:48:44.378Z</time>
      </trkpt>
      <trkpt lat="45.21263" lon="5.70017">
        <ele>214.61569005875</ele>
        <time>2018-09-30T15:48:52.388Z</time>
      </trkpt>
      <trkpt lat="45.21262" lon="5.70012">
        <ele>214.49823812132</ele>
        <time>2018-09-30T15:48:53.593Z</time>
      </trkpt>
      <trkpt lat="45.21249" lon="5.69984">
        <ele>213.73734252035</ele>
        <time>2018-09-30T15:49:02.811Z</time>
      </trkpt>
      <trkpt lat="45.21238" lon="5.69954">
        <ele>212.99328935195</ele>
        <time>2018-09-30T15:49:11.769Z</time>
      </trkpt>
      <trkpt lat="45.21229" lon="5.69952">
        <ele>212.71651253015</ele>
        <time>2018-09-30T15:49:15.462Z</time>
      </trkpt>
      <trkpt lat="45.2117" lon="5.69904">
        <ele>211.32063866945</ele>
        <time>2018-09-30T15:49:41.509Z</time>
      </trkpt>
      <trkpt lat="45.21162" lon="5.69897">
        <ele>211.1239157788</ele>
        <time>2018-09-30T15:49:45.183Z</time>
      </trkpt>
      <trkpt lat="45.21124" lon="5.69865">
        <ele>210.2119269428</ele>
        <time>2018-09-30T15:50:02.137Z</time>
      </trkpt>
      <trkpt lat="45.21117" lon="5.69857">
        <ele>210.02045881903</ele>
        <time>2018-09-30T15:50:05.828Z</time>
      </trkpt>
      <trkpt lat="45.21112" lon="5.69862">
        <ele>209.89187354742</ele>
        <time>2018-09-30T15:50:08.323Z</time>
      </trkpt>
      <trkpt lat="45.21102" lon="5.69876">
        <ele>209.60626221342</ele>
        <time>2018-09-30T15:50:13.864Z</time>
      </trkpt>
      <trkpt lat="45.21075" lon="5.69935">
        <ele>209.0859221391</ele>
        <time>2018-09-30T15:50:34.187Z</time>
      </trkpt>
      <trkpt lat="45.20962" lon="5.70223">
        <ele>209.36764168704</ele>
        <time>2018-09-30T15:52:10.820Z</time>
      </trkpt>
      <trkpt lat="45.2093" lon="5.70293">
        <ele>209.44356223185</ele>
        <time>2018-09-30T15:52:34.869Z</time>
      </trkpt>
      <trkpt lat="45.20923" lon="5.70299">
        <ele>209.45402813365</ele>
        <time>2018-09-30T15:52:38.186Z</time>
      </trkpt>
      <trkpt lat="45.20914" lon="5.703">
        <ele>209.46636892321</ele>
        <time>2018-09-30T15:52:42.058Z</time>
      </trkpt>
      <trkpt lat="45.20855" lon="5.70262">
        <ele>209.69747845261</ele>
        <time>2018-09-30T15:53:08.705Z</time>
      </trkpt>
      <trkpt lat="45.2085" lon="5.70261">
        <ele>209.7254751901</ele>
        <time>2018-09-30T15:53:10.838Z</time>
      </trkpt>
      <trkpt lat="45.2084" lon="5.70261">
        <ele>209.77925752226</ele>
        <time>2018-09-30T15:53:15.027Z</time>
      </trkpt>
      <trkpt lat="45.20821" lon="5.70254">
        <ele>209.88650788299</ele>
        <time>2018-09-30T15:53:23.431Z</time>
      </trkpt>
      <trkpt lat="45.20805" lon="5.70247">
        <ele>209.97544472464</ele>
        <time>2018-09-30T15:53:30.349Z</time>
      </trkpt>
      <trkpt lat="45.20791" lon="5.70238">
        <ele>210.05958200385</ele>
        <time>2018-09-30T15:53:37.024Z</time>
      </trkpt>
      <trkpt lat="45.20627" lon="5.70152">
        <ele>211.12559169794</ele>
        <time>2018-09-30T15:54:50.507Z</time>
      </trkpt>
      <trkpt lat="45.20616" lon="5.70152">
        <ele>211.19991974995</ele>
        <time>2018-09-30T15:54:55.173Z</time>
      </trkpt>
      <trkpt lat="45.20592" lon="5.70142">
        <ele>211.36751413686</ele>
        <time>2018-09-30T15:55:05.786Z</time>
      </trkpt>
      <trkpt lat="45.20542" lon="5.70129">
        <ele>211.68962950231</ele>
        <time>2018-09-30T15:55:27.149Z</time>
      </trkpt>
      <trkpt lat="45.20516" lon="5.7012">
        <ele>211.76848301247</ele>
        <time>2018-09-30T15:55:38.360Z</time>
      </trkpt>
      <trkpt lat="45.20511" lon="5.70115">
        <ele>211.78783971823</ele>
        <time>2018-09-30T15:55:41.077Z</time>
      </trkpt>
      <trkpt lat="45.20506" lon="5.70107">
        <ele>211.80894248999</ele>
        <time>2018-09-30T15:55:44.002Z</time>
      </trkpt>
      <trkpt lat="45.205" lon="5.70097">
        <ele>211.83692606788</ele>
        <time>2018-09-30T15:55:48.028Z</time>
      </trkpt>
      <trkpt lat="45.20495" lon="5.7009">
        <ele>211.85681004125</ele>
        <time>2018-09-30T15:55:50.831Z</time>
      </trkpt>
      <trkpt lat="45.20493" lon="5.70087">
        <ele>211.8646836684</ele>
        <time>2018-09-30T15:55:51.957Z</time>
      </trkpt>
      <trkpt lat="45.20487" lon="5.70078">
        <ele>211.89158305541</ele>
        <time>2018-09-30T15:55:55.691Z</time>
      </trkpt>
      <trkpt lat="45.20482" lon="5.7007">
        <ele>211.91341060974</ele>
        <time>2018-09-30T15:55:58.678Z</time>
      </trkpt>
      <trkpt lat="45.20472" lon="5.70052">
        <ele>211.96072452453</ele>
        <time>2018-09-30T15:56:05.365Z</time>
      </trkpt>
      <trkpt lat="45.20468" lon="5.70041">
        <ele>211.98772606549</ele>
        <time>2018-09-30T15:56:09.120Z</time>
      </trkpt>
      <trkpt lat="45.20471" lon="5.70032">
        <ele>212.00804589909</ele>
        <time>2018-09-30T15:56:11.939Z</time>
      </trkpt>
      <trkpt lat="45.20525" lon="5.69961">
        <ele>212.20430351002</ele>
        <time>2018-09-30T15:56:42.523Z</time>
      </trkpt>
      <trkpt lat="45.20499" lon="5.6992">
        <ele>212.20430351002</ele>
        <time>2018-09-30T15:56:58.765Z</time>
      </trkpt>
      <trkpt lat="45.20495" lon="5.69928">
        <ele>212.20430351002</ele>
        <time>2018-09-30T15:57:01.591Z</time>
      </trkpt>
      <trkpt lat="45.20488" lon="5.69941">
        <ele>212.20430351002</ele>
        <time>2018-09-30T15:57:06.433Z</time>
      </trkpt>
      <trkpt lat="45.20481" lon="5.6995">
        <ele>212.20430351002</ele>
        <time>2018-09-30T15:57:10.227Z</time>
      </trkpt>
      <trkpt lat="45.20445" lon="5.69998">
        <ele>212.20430351002</ele>
        <time>2018-09-30T15:57:30.588Z</time>
      </trkpt>
      <trkpt lat="45.20444" lon="5.69999">
        <ele>212.20430351002</ele>
        <time>2018-09-30T15:57:31.093Z</time>
      </trkpt>
      <trkpt lat="45.20436" lon="5.70009">
        <ele>212.20430351002</ele>
        <time>2018-09-30T15:57:35.652Z</time>
      </trkpt>
      <trkpt lat="45.20434" lon="5.70006">
        <ele>212.20430351002</ele>
        <time>2018-09-30T15:57:36.862Z</time>
      </trkpt>
      <trkpt lat="45.2042" lon="5.69984">
        <ele>212.20430351002</ele>
        <time>2018-09-30T15:57:45.414Z</time>
      </trkpt>
      <trkpt lat="45.20418" lon="5.69981">
        <ele>212.20430351002</ele>
        <time>2018-09-30T15:57:46.652Z</time>
      </trkpt>
      <trkpt lat="45.20401" lon="5.70003">
        <ele>212.20430351002</ele>
        <time>2018-09-30T15:57:56.108Z</time>
      </trkpt>
      <trkpt lat="45.20397" lon="5.70008">
        <ele>212.20430351002</ele>
        <time>2018-09-30T15:57:58.468Z</time>
      </trkpt>
    </trkseg>
  </trk>
</gpx>